createdAt,value
2019-04-30T03:18:59.517Z,19.23
2019-04-30T03:21:46.124Z,23.70
2019-04-30T03:28:34.826Z,23.95
2019-04-30T03:41:53.215Z,25.32
2019-04-30T04:39:45.046Z,21.42
2019-04-30T04:42:19.850Z,20.90
2019-04-30T04:44:59.454Z,20.68
2019-04-30T04:47:34.720Z,21.12
2019-04-30T04:50:14.897Z,18.07
2019-04-30T04:52:54.775Z,15.55
2019-04-30T04:55:30.651Z,15.80
2019-04-30T04:58:09.684Z,15.50
2019-04-30T05:00:49.280Z,15.95
2019-04-30T05:03:36.093Z,14.10
2019-04-30T05:06:11.842Z,14.55
2019-04-30T05:08:49.344Z,14.60
2019-04-30T05:11:24.967Z,11.35
2019-04-30T05:14:06.039Z,13.98
2019-04-30T05:16:40.491Z,13.48
2019-04-30T05:19:18.657Z,11.53
2019-04-30T05:21:54.010Z,12.28
2019-04-30T05:24:28.982Z,12.23
2019-04-30T05:27:04.711Z,11.75
2019-04-30T05:29:41.558Z,12.07
2019-04-30T05:32:19.590Z,12.75
2019-04-30T05:34:54.300Z,12.82
2019-04-30T05:37:39.326Z,14.75
2019-04-30T05:40:15.380Z,11.73
2019-04-30T05:42:52.849Z,13.93
2019-04-30T05:45:30.121Z,13.05
2019-04-30T05:48:05.640Z,11.18
2019-04-30T05:50:43.026Z,14.95
2019-04-30T05:53:21.908Z,14.13
2019-04-30T05:55:59.189Z,12.20
2019-04-30T05:58:34.376Z,12.68
2019-04-30T06:01:19.590Z,10.20
2019-04-30T06:03:56.365Z,9.58
2019-04-30T06:06:33.580Z,12.70
2019-04-30T06:09:14.869Z,11.40
2019-04-30T06:11:51.036Z,13.18
2019-04-30T06:14:28.520Z,13.45
2019-04-30T06:17:19.739Z,12.50
2019-04-30T06:19:54.226Z,11.90
2019-04-30T06:22:28.891Z,13.48
2019-04-30T06:25:05.472Z,11.95
2019-04-30T06:27:39.218Z,12.95
2019-04-30T06:30:13.925Z,14.87
2019-04-30T06:32:49.651Z,14.47
2019-04-30T06:35:29.574Z,16.80
2019-04-30T06:38:03.995Z,12.13
2019-04-30T06:40:42.516Z,14.23
2019-04-30T06:43:19.237Z,13.90
2019-04-30T06:45:55.946Z,12.85
2019-04-30T06:48:32.380Z,15.90
2019-04-30T06:51:09.110Z,15.45
2019-04-30T06:53:43.402Z,15.58
2019-04-30T06:56:30.516Z,12.90
2019-04-30T06:59:09.232Z,14.68
2019-04-30T07:01:51.464Z,13.08
2019-04-30T07:04:29.208Z,16.95
2019-04-30T07:07:04.087Z,11.83
2019-04-30T07:09:53.141Z,14.53
2019-04-30T07:12:45.419Z,13.67
2019-04-30T07:15:31.792Z,11.35
2019-04-30T07:18:08.984Z,14.03
2019-04-30T07:20:44.661Z,13.20
2019-04-30T07:23:28.538Z,13.72
2019-04-30T07:26:05.580Z,16.50
2019-04-30T07:28:44.850Z,12.07
2019-04-30T07:31:15.454Z,14.13
2019-04-30T07:33:53.449Z,15.03
2019-04-30T07:36:43.304Z,16.75
2019-04-30T07:39:03.936Z,16.60
2019-04-30T07:41:40.257Z,14.30
2019-04-30T07:44:30.182Z,14.85
2019-04-30T07:46:52.861Z,17.57
2019-04-30T07:49:46.165Z,18.15
2019-04-30T07:52:04.888Z,17.45
2019-04-30T07:54:41.574Z,20.00
2019-04-30T07:57:16.713Z,16.75
2019-04-30T08:00:00.999Z,16.57
2019-04-30T08:02:40.871Z,20.52
2019-04-30T08:05:23.084Z,19.00
2019-04-30T08:09:35.581Z,19.07
2019-04-30T08:10:33.394Z,21.77
2019-04-30T08:13:13.722Z,21.17
2019-04-30T08:15:46.017Z,26.95
2019-04-30T08:18:20.810Z,21.85
2019-04-30T08:20:55.658Z,23.65
2019-04-30T08:23:36.921Z,19.52
2019-04-30T08:26:08.869Z,22.50
2019-04-30T08:28:45.625Z,23.92
2019-04-30T08:31:20.182Z,23.67
2019-04-30T08:34:00.214Z,21.30
2019-04-30T08:36:35.046Z,18.92
2019-04-30T08:39:11.036Z,21.93
2019-04-30T08:41:49.223Z,20.80
2019-04-30T08:44:23.602Z,20.23
2019-04-30T08:46:59.214Z,21.75
2019-04-30T08:49:34.632Z,19.37
2019-04-30T08:52:10.674Z,17.35
2019-04-30T08:54:50.846Z,21.23
2019-04-30T08:57:27.010Z,23.50
2019-04-30T09:00:02.930Z,21.27
2019-04-30T09:02:38.808Z,19.95
2019-04-30T09:05:32.880Z,22.87
2019-04-30T09:10:44.515Z,18.20
2019-04-30T09:13:20.010Z,18.85
2019-04-30T09:15:55.682Z,24.02
2019-04-30T09:18:29.962Z,20.80
2019-04-30T09:21:08.983Z,22.95
2019-04-30T09:23:49.915Z,22.15
2019-04-30T09:26:19.787Z,21.42
2019-04-30T09:28:54.149Z,19.67
2019-04-30T09:31:30.215Z,20.05
2019-04-30T09:34:15.260Z,23.52
2019-04-30T09:36:42.480Z,19.02
2019-04-30T09:39:19.916Z,18.92
2019-04-30T09:41:53.648Z,15.88
2019-04-30T09:44:30.474Z,16.32
2019-04-30T09:47:08.879Z,18.48
2019-04-30T09:49:43.506Z,18.82
2019-04-30T09:52:19.264Z,21.02
2019-04-30T09:54:54.576Z,19.35
2019-04-30T09:57:33.834Z,17.90
2019-04-30T10:00:15.757Z,17.05
2019-04-30T10:02:52.803Z,21.25
2019-04-30T10:05:31.879Z,21.52
2019-04-30T10:08:09.422Z,22.05
2019-04-30T10:10:48.606Z,21.55
2019-04-30T10:13:23.725Z,18.45
2019-04-30T10:16:02.288Z,20.20
2019-04-30T10:18:45.817Z,20.40
2019-04-30T10:21:29.017Z,17.82
2019-04-30T10:24:13.127Z,21.03
2019-04-30T10:26:39.902Z,19.98
2019-04-30T10:29:14.344Z,22.17
2019-04-30T10:31:52.955Z,18.90
2019-04-30T10:34:27.249Z,19.25
2019-04-30T10:37:02.925Z,17.42
2019-04-30T10:39:38.997Z,17.10
2019-04-30T10:42:13.942Z,18.42
2019-04-30T10:44:48.459Z,20.05
2019-04-30T10:47:23.171Z,18.07
2019-04-30T10:49:58.547Z,22.62
2019-04-30T10:52:33.520Z,19.90
2019-04-30T10:55:10.178Z,21.62
2019-04-30T10:57:44.609Z,21.12
2019-04-30T11:00:19.398Z,18.52
2019-04-30T11:02:54.018Z,19.32
2019-04-30T11:05:32.053Z,17.92
2019-04-30T11:08:07.649Z,18.12
2019-04-30T11:10:42.090Z,19.65
2019-04-30T11:13:16.611Z,19.45
2019-04-30T11:15:51.139Z,17.85
2019-04-30T11:18:25.870Z,18.15
2019-04-30T11:21:01.975Z,19.50
2019-04-30T11:23:39.606Z,17.87
2019-04-30T11:26:14.382Z,19.02
2019-04-30T11:28:53.871Z,18.82
2019-04-30T11:31:30.978Z,16.93
2019-04-30T11:34:07.772Z,19.40
2019-04-30T11:36:44.659Z,20.30
2019-04-30T11:39:24.223Z,17.77
2019-04-30T11:42:02.968Z,17.40
2019-04-30T11:44:43.723Z,15.35
2019-04-30T11:47:35.730Z,18.45
2019-04-30T11:53:22.136Z,21.07
2019-04-30T11:55:42.838Z,18.82
2019-04-30T11:58:22.090Z,20.12
2019-04-30T12:00:57.069Z,20.23
2019-04-30T12:03:31.431Z,20.65
2019-04-30T12:06:08.619Z,19.50
2019-04-30T12:08:49.575Z,21.65
2019-04-30T12:14:20.227Z,22.95
2019-04-30T12:16:56.968Z,16.37
2019-04-30T12:19:38.838Z,15.72
2019-04-30T12:22:20.313Z,18.48
2019-04-30T12:25:03.337Z,18.85
2019-04-30T12:27:36.360Z,17.77
2019-04-30T12:30:12.512Z,20.50
2019-04-30T12:32:51.871Z,12.45
2019-04-30T12:35:37.612Z,18.92
2019-04-30T12:38:18.941Z,18.02
2019-04-30T12:40:57.887Z,22.13
2019-04-30T12:43:38.256Z,29.45
2019-04-30T12:49:06.910Z,21.35
2019-04-30T12:51:48.837Z,29.42
2019-04-30T12:54:33.049Z,25.90
2019-04-30T12:57:19.227Z,20.62
2019-04-30T13:00:09.471Z,21.57
2019-04-30T13:02:45.427Z,21.68
2019-04-30T13:05:24.374Z,22.27
2019-04-30T13:08:10.962Z,32.38
2019-04-30T13:10:51.275Z,22.67
2019-04-30T13:13:31.465Z,17.35
2019-04-30T13:19:06.277Z,23.83
2019-04-30T13:21:43.835Z,20.00
2019-04-30T13:24:35.266Z,22.50
2019-04-30T13:27:11.541Z,27.65
2019-04-30T13:30:09.510Z,22.67
2019-04-30T13:32:49.407Z,40.35
2019-04-30T13:35:30.708Z,32.53
2019-04-30T13:38:13.249Z,19.57
2019-04-30T13:41:20.026Z,28.35
2019-04-30T13:43:58.749Z,31.02
2019-04-30T13:46:41.352Z,27.95
2019-04-30T13:49:35.742Z,39.88
2019-04-30T13:52:12.405Z,30.70
2019-04-30T13:54:48.641Z,29.80
2019-04-30T13:57:38.112Z,26.73
2019-04-30T14:00:18.521Z,26.42
2019-04-30T14:03:04.795Z,31.00
2019-04-30T14:05:45.682Z,21.93
2019-04-30T14:08:26.430Z,50.10
2019-04-30T14:11:02.943Z,21.23
2019-04-30T14:13:38.722Z,23.80
2019-04-30T14:16:25.119Z,27.17
2019-04-30T14:21:42.456Z,30.08
2019-04-30T14:24:24.206Z,98.05
2019-04-30T14:26:59.276Z,27.85
2019-04-30T14:29:35.524Z,55.33
2019-04-30T14:32:13.743Z,84.52
2019-04-30T14:34:51.284Z,55.45
2019-04-30T14:37:31.870Z,29.40
2019-04-30T14:40:11.920Z,31.17
2019-04-30T14:42:59.464Z,16.87
2019-04-30T14:45:37.926Z,20.77
2019-04-30T14:48:14.491Z,21.60
2019-04-30T14:51:06.532Z,16.50
2019-04-30T14:57:04.092Z,15.50
2019-04-30T15:00:04.604Z,24.77
2019-04-30T15:02:41.265Z,21.30
2019-04-30T15:05:19.560Z,18.45
2019-04-30T15:08:00.696Z,18.67
2019-04-30T15:10:39.324Z,18.85
2019-04-30T15:13:19.382Z,18.77
2019-04-30T15:15:57.872Z,20.70
2019-04-30T15:18:38.766Z,20.35
2019-04-30T15:21:21.921Z,21.87
2019-04-30T15:24:04.639Z,21.80
2019-04-30T15:26:41.547Z,21.73
2019-04-30T15:29:19.054Z,23.70
2019-04-30T15:32:00.648Z,24.30
2019-04-30T15:34:36.445Z,23.75
2019-04-30T15:37:21.150Z,27.52
2019-04-30T15:45:43.787Z,20.97
2019-04-30T15:48:24.788Z,21.77
2019-04-30T15:51:16.817Z,23.92
2019-04-30T15:53:56.853Z,25.70
2019-04-30T15:56:36.953Z,31.20
2019-04-30T15:59:20.185Z,22.13
2019-04-30T16:02:03.616Z,25.97
2019-04-30T16:05:01.598Z,26.50
2019-04-30T16:10:48.656Z,29.48
2019-04-30T16:13:33.662Z,28.40
2019-04-30T16:16:13.248Z,29.92
2019-04-30T16:18:52.014Z,26.70
2019-04-30T16:21:41.932Z,26.57
2019-04-30T16:24:28.752Z,28.27
2019-04-30T16:27:04.933Z,31.60
2019-04-30T16:29:40.711Z,30.35
2019-04-30T16:32:16.540Z,30.82
2019-04-30T16:34:52.178Z,26.87
2019-04-30T16:37:28.810Z,27.05
2019-04-30T16:40:19.017Z,27.40
2019-04-30T16:42:53.668Z,34.53
2019-04-30T16:45:31.506Z,30.37
2019-04-30T16:48:12.017Z,30.95
2019-04-30T16:50:48.930Z,33.70
2019-04-30T16:53:25.218Z,32.28
2019-04-30T16:56:04.320Z,34.27
2019-04-30T16:58:56.355Z,32.40
2019-04-30T17:01:35.146Z,30.57
2019-04-30T17:04:14.836Z,31.27
2019-04-30T17:06:53.225Z,36.00
2019-04-30T17:09:30.045Z,33.53
2019-04-30T17:12:10.039Z,31.70
2019-04-30T17:14:45.166Z,35.48
2019-04-30T17:17:32.845Z,35.33
2019-04-30T17:20:08.706Z,37.73
2019-04-30T17:22:45.765Z,34.38
2019-04-30T17:25:20.456Z,38.85
2019-04-30T17:28:01.645Z,36.20
2019-04-30T17:30:36.274Z,37.30
2019-04-30T17:33:14.986Z,39.38
2019-04-30T17:35:49.862Z,38.78
2019-04-30T17:38:27.281Z,39.67
2019-04-30T17:41:01.292Z,49.18
2019-04-30T17:43:36.921Z,41.30
2019-04-30T17:46:11.475Z,33.95
2019-04-30T17:48:46.912Z,36.60
2019-04-30T17:51:22.891Z,43.63
2019-04-30T17:54:16.217Z,37.10
2019-04-30T17:56:50.379Z,40.85
2019-04-30T17:59:27.501Z,34.40
2019-04-30T18:02:05.167Z,33.98
2019-04-30T18:04:39.973Z,33.45
2019-04-30T18:07:14.551Z,31.70
2019-04-30T18:09:49.536Z,28.90
2019-04-30T18:12:23.909Z,32.45
2019-04-30T18:14:59.970Z,31.35
2019-04-30T18:17:34.066Z,28.07
2019-04-30T18:20:13.383Z,35.30
2019-04-30T18:22:56.194Z,31.20
2019-04-30T18:25:43.905Z,26.00
2019-04-30T18:28:19.074Z,24.75
2019-04-30T18:30:53.637Z,27.42
2019-04-30T18:33:27.931Z,28.60
2019-04-30T18:36:02.331Z,25.17
2019-04-30T18:38:36.800Z,28.27
2019-04-30T18:41:11.283Z,29.07
2019-04-30T18:43:45.772Z,29.20
2019-04-30T18:46:20.521Z,26.80
2019-04-30T18:48:54.537Z,27.15
2019-04-30T18:51:38.451Z,25.05
2019-04-30T18:54:04.630Z,23.95
2019-04-30T18:56:40.623Z,27.67
2019-04-30T18:59:19.635Z,27.30
2019-04-30T19:01:53.713Z,27.62
2019-04-30T19:04:28.838Z,35.30
2019-04-30T19:07:04.322Z,34.85
2019-04-30T19:09:55.536Z,41.65
2019-04-30T19:12:33.597Z,34.92
2019-04-30T19:15:40.958Z,31.27
2019-04-30T19:18:01.293Z,36.83
2019-04-30T19:20:38.453Z,32.88
2019-04-30T19:23:12.451Z,33.50
2019-04-30T19:25:48.581Z,31.75
2019-04-30T19:28:22.401Z,32.50
2019-04-30T19:30:58.861Z,31.20
2019-04-30T19:33:32.492Z,50.15
2019-04-30T19:36:09.745Z,51.35
2019-04-30T19:38:44.868Z,43.90
2019-04-30T19:41:19.117Z,29.90
2019-04-30T19:43:53.410Z,42.88
2019-04-30T19:46:29.321Z,36.30
2019-04-30T19:49:02.938Z,35.00
2019-04-30T19:51:37.460Z,46.30
2019-04-30T19:54:12.915Z,37.80
2019-04-30T19:56:47.428Z,38.20
2019-04-30T19:59:21.929Z,38.92
2019-04-30T20:01:56.076Z,41.95
2019-04-30T20:04:34.096Z,45.00
2019-04-30T20:07:08.800Z,53.13
2019-04-30T20:09:43.310Z,49.42
2019-04-30T20:12:18.823Z,31.30
2019-04-30T20:14:53.583Z,41.48
2019-04-30T20:17:29.566Z,41.25
2019-04-30T20:20:03.861Z,40.15
2019-04-30T20:22:40.311Z,32.35
2019-04-30T20:25:15.073Z,39.92
2019-04-30T20:27:49.611Z,33.50
2019-04-30T20:30:24.556Z,36.50
2019-04-30T20:32:59.396Z,33.90
2019-04-30T20:35:34.175Z,35.95
2019-04-30T20:38:25.464Z,33.75
2019-04-30T20:41:02.771Z,32.90
2019-04-30T20:43:35.101Z,41.08
2019-04-30T20:46:09.462Z,33.73
2019-04-30T20:48:43.783Z,39.55
2019-04-30T20:51:19.589Z,55.65
2019-04-30T20:53:53.933Z,47.20
2019-04-30T20:56:29.112Z,41.60
2019-04-30T20:59:06.441Z,50.65
2019-04-30T21:01:39.313Z,32.58
2019-04-30T21:04:14.010Z,42.73
2019-04-30T21:06:49.663Z,40.55
2019-04-30T21:09:23.796Z,37.78
2019-04-30T21:11:59.761Z,41.13
2019-04-30T21:14:33.933Z,45.25
2019-04-30T21:17:07.881Z,42.88
2019-04-30T21:22:16.405Z,44.50
2019-04-30T21:24:50.615Z,44.05
2019-04-30T21:27:25.219Z,40.65
2019-04-30T21:30:00.821Z,43.98
2019-04-30T21:32:52.358Z,38.58
2019-04-30T21:35:27.557Z,45.05
2019-04-30T21:38:03.142Z,46.75
2019-04-30T21:40:39.317Z,48.58
2019-04-30T21:43:13.908Z,52.17
2019-04-30T21:45:49.363Z,53.55
2019-04-30T21:48:23.786Z,53.33
2019-04-30T21:50:59.192Z,52.62
2019-04-30T21:53:33.271Z,51.68
2019-04-30T21:56:07.675Z,46.10
2019-04-30T21:58:42.454Z,53.70
2019-04-30T22:01:17.896Z,50.15
2019-04-30T22:03:52.878Z,48.13
2019-04-30T22:06:29.429Z,50.55
2019-04-30T22:09:02.344Z,47.55
2019-04-30T22:11:39.344Z,46.60
2019-04-30T22:14:13.108Z,55.85
2019-04-30T22:16:49.323Z,48.23
2019-04-30T22:19:22.821Z,57.43
2019-04-30T22:21:59.360Z,55.17
2019-04-30T22:24:33.071Z,49.08
2019-04-30T22:27:07.178Z,47.43
2019-04-30T22:29:42.282Z,48.87
2019-04-30T22:32:16.538Z,50.15
2019-04-30T22:34:51.001Z,75.85
2019-04-30T22:37:25.342Z,63.33
2019-04-30T22:40:04.018Z,58.85
2019-04-30T22:42:39.789Z,49.20
2019-04-30T22:45:15.111Z,51.50
2019-04-30T22:47:50.539Z,51.02
2019-04-30T22:50:25.043Z,50.10
2019-04-30T22:52:59.512Z,49.35
2019-04-30T22:55:33.971Z,53.65
2019-04-30T22:58:08.611Z,52.27
2019-04-30T23:00:46.979Z,50.58
2019-04-30T23:03:23.460Z,55.43
2019-04-30T23:06:01.611Z,52.20
2019-04-30T23:08:33.794Z,48.58
2019-04-30T23:11:08.455Z,55.12
2019-04-30T23:13:43.084Z,50.23
2019-04-30T23:16:17.412Z,56.85
2019-04-30T23:18:52.945Z,48.95
2019-04-30T23:21:27.356Z,53.83
2019-04-30T23:24:01.681Z,51.65
2019-04-30T23:26:35.826Z,51.33
2019-04-30T23:29:10.434Z,52.50
2019-04-30T23:31:44.863Z,50.67
2019-04-30T23:34:18.956Z,47.62
2019-04-30T23:36:53.215Z,49.50
2019-04-30T23:39:27.626Z,47.05
2019-04-30T23:42:02.248Z,51.65
2019-04-30T23:44:37.189Z,43.60
2019-04-30T23:47:11.532Z,50.90
2019-04-30T23:49:46.195Z,51.98
2019-04-30T23:52:21.120Z,49.08
2019-04-30T23:54:55.672Z,48.08
2019-04-30T23:57:30.376Z,48.40
